Terminal Aerodrome Forecast
Issued by NWS

Current Version | Previous Version | Graphics & Text | Print | Product List | Glossary On
Versions: 1 2 3 4 5 6 7 8 9 10 11 12 13 14 15 16 17 18 19
000
FTUS41 KPBZ 171700
TAFHLG
TAF
KHLG 171731Z 1718/1818 25005KT P6SM BKN025
     FM172000 27005KT P6SM BKN035
     FM180600 VRB03KT 4SM BR BKN080
     FM180800 VRB02KT 2SM BR BKN015
     FM181300 VRB04KT P6SM BKN040=

USA.gov is the U.S. government's official web portal to all federal, state and local government web resources and services.